<?xml version="1.0" encoding="UTF-8" standalone="no" ?>
<gpx xmlns="http://www.topografix.com/GPX/1/1" xmlns:xsi="http://www.w3.org/2001/XMLSchema-instance" xsi:schemaLocation="http://www.topografix.com/GPX/1/1 http://www.topografix.com/GPX/1/1/gpx.xsd" version="1.1" creator="VisuGPX - https://www.visugpx.com">
  <metadata>
    <name>Awenne MARCHE ADEPS 2016 ( plouf)</name>
    <desc><![CDATA[Petite marche à faire en famille assez sympa]]></desc>
  </metadata>
  <trk>
    <name><![CDATA[Awenne MARCHE ADEPS 2016 ( plouf)_1]]></name>
    <trkseg>
      <trkpt lat="50.07187" lon="5.30181">
        <ele>260</ele>
        <time>2017-07-02T09:08:09Z</time>
      </trkpt>
      <trkpt lat="50.07188" lon="5.30156">
        <ele>259</ele>
        <time>2017-07-02T09:08:20Z</time>
      </trkpt>
      <trkpt lat="50.07185" lon="5.30132">
        <ele>258</ele>
        <time>2017-07-02T09:08:30Z</time>
      </trkpt>
      <trkpt lat="50.07195" lon="5.30108">
        <ele>257</ele>
        <time>2017-07-02T09:08:41Z</time>
      </trkpt>
      <trkpt lat="50.07196" lon="5.30088">
        <ele>256</ele>
        <time>2017-07-02T09:08:52Z</time>
      </trkpt>
      <trkpt lat="50.07188" lon="5.30071">
        <ele>255</ele>
        <time>2017-07-02T09:09:02Z</time>
      </trkpt>
      <trkpt lat="50.07179" lon="5.30045">
        <ele>253</ele>
        <time>2017-07-02T09:09:13Z</time>
      </trkpt>
      <trkpt lat="50.07173" lon="5.30029">
        <ele>251</ele>
        <time>2017-07-02T09:09:23Z</time>
      </trkpt>
      <trkpt lat="50.07164" lon="5.30006">
        <ele>250</ele>
        <time>2017-07-02T09:09:34Z</time>
      </trkpt>
      <trkpt lat="50.07156" lon="5.29972">
        <ele>249</ele>
        <time>2017-07-02T09:09:44Z</time>
      </trkpt>
      <trkpt lat="50.07177" lon="5.2995">
        <ele>248</ele>
        <time>2017-07-02T09:09:55Z</time>
      </trkpt>
      <trkpt lat="50.07195" lon="5.29931">
        <ele>249</ele>
        <time>2017-07-02T09:10:06Z</time>
      </trkpt>
      <trkpt lat="50.072" lon="5.29904">
        <ele>248</ele>
        <time>2017-07-02T09:10:17Z</time>
      </trkpt>
      <trkpt lat="50.07215" lon="5.29898">
        <ele>249</ele>
        <time>2017-07-02T09:10:27Z</time>
      </trkpt>
      <trkpt lat="50.07228" lon="5.29893">
        <ele>250</ele>
        <time>2017-07-02T09:10:38Z</time>
      </trkpt>
      <trkpt lat="50.07241" lon="5.29888">
        <ele>251</ele>
        <time>2017-07-02T09:10:48Z</time>
      </trkpt>
      <trkpt lat="50.07256" lon="5.29886">
        <ele>252</ele>
        <time>2017-07-02T09:10:58Z</time>
      </trkpt>
      <trkpt lat="50.07272" lon="5.29883">
        <ele>254</ele>
        <time>2017-07-02T09:11:09Z</time>
      </trkpt>
      <trkpt lat="50.07288" lon="5.29876">
        <ele>254</ele>
        <time>2017-07-02T09:11:20Z</time>
      </trkpt>
      <trkpt lat="50.07304" lon="5.29873">
        <ele>257</ele>
        <time>2017-07-02T09:11:31Z</time>
      </trkpt>
      <trkpt lat="50.07307" lon="5.29855">
        <ele>258</ele>
        <time>2017-07-02T09:11:42Z</time>
      </trkpt>
      <trkpt lat="50.07301" lon="5.29827">
        <ele>256</ele>
        <time>2017-07-02T09:11:52Z</time>
      </trkpt>
      <trkpt lat="50.07293" lon="5.29797">
        <ele>253</ele>
        <time>2017-07-02T09:12:03Z</time>
      </trkpt>
      <trkpt lat="50.07286" lon="5.29764">
        <ele>249</ele>
        <time>2017-07-02T09:12:13Z</time>
      </trkpt>
      <trkpt lat="50.07281" lon="5.29734">
        <ele>245</ele>
        <time>2017-07-02T09:12:24Z</time>
      </trkpt>
      <trkpt lat="50.0728" lon="5.29714">
        <ele>241</ele>
        <time>2017-07-02T09:12:35Z</time>
      </trkpt>
      <trkpt lat="50.07281" lon="5.29695">
        <ele>236</ele>
        <time>2017-07-02T09:12:45Z</time>
      </trkpt>
      <trkpt lat="50.07285" lon="5.29671">
        <ele>229</ele>
        <time>2017-07-02T09:12:56Z</time>
      </trkpt>
      <trkpt lat="50.07293" lon="5.29653">
        <ele>224</ele>
        <time>2017-07-02T09:13:06Z</time>
      </trkpt>
      <trkpt lat="50.07311" lon="5.29645">
        <ele>219</ele>
        <time>2017-07-02T09:13:16Z</time>
      </trkpt>
      <trkpt lat="50.07327" lon="5.29641">
        <ele>218</ele>
        <time>2017-07-02T09:13:27Z</time>
      </trkpt>
      <trkpt lat="50.07346" lon="5.29639">
        <ele>217</ele>
        <time>2017-07-02T09:13:37Z</time>
      </trkpt>
      <trkpt lat="50.07365" lon="5.29637">
        <ele>215</ele>
        <time>2017-07-02T09:13:47Z</time>
      </trkpt>
      <trkpt lat="50.07384" lon="5.29639">
        <ele>215</ele>
        <time>2017-07-02T09:13:58Z</time>
      </trkpt>
      <trkpt lat="50.07397" lon="5.29642">
        <ele>214</ele>
        <time>2017-07-02T09:14:08Z</time>
      </trkpt>
      <trkpt lat="50.07415" lon="5.29645">
        <ele>213</ele>
        <time>2017-07-02T09:14:18Z</time>
      </trkpt>
      <trkpt lat="50.07433" lon="5.29647">
        <ele>213</ele>
        <time>2017-07-02T09:14:29Z</time>
      </trkpt>
      <trkpt lat="50.07447" lon="5.29647">
        <ele>213</ele>
        <time>2017-07-02T09:14:40Z</time>
      </trkpt>
      <trkpt lat="50.07463" lon="5.2965">
        <ele>213</ele>
        <time>2017-07-02T09:14:51Z</time>
      </trkpt>
      <trkpt lat="50.07478" lon="5.29653">
        <ele>214</ele>
        <time>2017-07-02T09:15:01Z</time>
      </trkpt>
      <trkpt lat="50.07494" lon="5.29653">
        <ele>213</ele>
        <time>2017-07-02T09:15:12Z</time>
      </trkpt>
      <trkpt lat="50.07507" lon="5.29653">
        <ele>213</ele>
        <time>2017-07-02T09:15:23Z</time>
      </trkpt>
      <trkpt lat="50.0752" lon="5.29653">
        <ele>213</ele>
        <time>2017-07-02T09:15:33Z</time>
      </trkpt>
      <trkpt lat="50.07538" lon="5.29651">
        <ele>212</ele>
        <time>2017-07-02T09:15:44Z</time>
      </trkpt>
      <trkpt lat="50.07554" lon="5.29649">
        <ele>212</ele>
        <time>2017-07-02T09:15:54Z</time>
      </trkpt>
      <trkpt lat="50.07563" lon="5.29648">
        <ele>211</ele>
        <time>2017-07-02T09:16:04Z</time>
      </trkpt>
      <trkpt lat="50.07586" lon="5.29638">
        <ele>210</ele>
        <time>2017-07-02T09:16:14Z</time>
      </trkpt>
      <trkpt lat="50.07609" lon="5.29625">
        <ele>207</ele>
        <time>2017-07-02T09:16:25Z</time>
      </trkpt>
      <trkpt lat="50.07629" lon="5.29621">
        <ele>204</ele>
        <time>2017-07-02T09:16:35Z</time>
      </trkpt>
      <trkpt lat="50.07647" lon="5.29608">
        <ele>201</ele>
        <time>2017-07-02T09:16:45Z</time>
      </trkpt>
      <trkpt lat="50.07653" lon="5.29602">
        <ele>201</ele>
        <time>2017-07-02T09:16:55Z</time>
      </trkpt>
      <trkpt lat="50.07645" lon="5.29595">
        <ele>201</ele>
        <time>2017-07-02T09:17:05Z</time>
      </trkpt>
      <trkpt lat="50.07637" lon="5.29602">
        <ele>201</ele>
        <time>2017-07-02T09:17:16Z</time>
      </trkpt>
      <trkpt lat="50.07624" lon="5.2961">
        <ele>202</ele>
        <time>2017-07-02T09:17:26Z</time>
      </trkpt>
      <trkpt lat="50.07605" lon="5.29616">
        <ele>202</ele>
        <time>2017-07-02T09:17:37Z</time>
      </trkpt>
      <trkpt lat="50.07589" lon="5.29616">
        <ele>202</ele>
        <time>2017-07-02T09:17:47Z</time>
      </trkpt>
      <trkpt lat="50.07573" lon="5.29612">
        <ele>203</ele>
        <time>2017-07-02T09:17:57Z</time>
      </trkpt>
      <trkpt lat="50.07557" lon="5.29607">
        <ele>203</ele>
        <time>2017-07-02T09:18:08Z</time>
      </trkpt>
      <trkpt lat="50.07542" lon="5.29602">
        <ele>204</ele>
        <time>2017-07-02T09:18:18Z</time>
      </trkpt>
      <trkpt lat="50.0753" lon="5.29594">
        <ele>204</ele>
        <time>2017-07-02T09:18:28Z</time>
      </trkpt>
      <trkpt lat="50.07524" lon="5.29572">
        <ele>205</ele>
        <time>2017-07-02T09:18:39Z</time>
      </trkpt>
      <trkpt lat="50.07521" lon="5.29558">
        <ele>206</ele>
        <time>2017-07-02T09:18:49Z</time>
      </trkpt>
      <trkpt lat="50.07524" lon="5.29539">
        <ele>209</ele>
        <time>2017-07-02T09:19:00Z</time>
      </trkpt>
      <trkpt lat="50.07528" lon="5.29524">
        <ele>211</ele>
        <time>2017-07-02T09:19:10Z</time>
      </trkpt>
      <trkpt lat="50.07529" lon="5.29509">
        <ele>213</ele>
        <time>2017-07-02T09:19:20Z</time>
      </trkpt>
      <trkpt lat="50.07531" lon="5.29491">
        <ele>215</ele>
        <time>2017-07-02T09:19:31Z</time>
      </trkpt>
      <trkpt lat="50.07533" lon="5.29474">
        <ele>217</ele>
        <time>2017-07-02T09:19:41Z</time>
      </trkpt>
      <trkpt lat="50.07536" lon="5.29457">
        <ele>218</ele>
        <time>2017-07-02T09:19:52Z</time>
      </trkpt>
      <trkpt lat="50.07538" lon="5.29442">
        <ele>220</ele>
        <time>2017-07-02T09:20:02Z</time>
      </trkpt>
      <trkpt lat="50.07539" lon="5.2943">
        <ele>222</ele>
        <time>2017-07-02T09:20:13Z</time>
      </trkpt>
      <trkpt lat="50.07537" lon="5.2942">
        <ele>225</ele>
        <time>2017-07-02T09:20:23Z</time>
      </trkpt>
      <trkpt lat="50.07535" lon="5.29413">
        <ele>227</ele>
        <time>2017-07-02T09:20:34Z</time>
      </trkpt>
      <trkpt lat="50.07534" lon="5.29403">
        <ele>230</ele>
        <time>2017-07-02T09:20:45Z</time>
      </trkpt>
      <trkpt lat="50.07537" lon="5.29393">
        <ele>231</ele>
        <time>2017-07-02T09:20:55Z</time>
      </trkpt>
      <trkpt lat="50.07544" lon="5.29382">
        <ele>234</ele>
        <time>2017-07-02T09:21:06Z</time>
      </trkpt>
      <trkpt lat="50.0755" lon="5.29368">
        <ele>236</ele>
        <time>2017-07-02T09:21:17Z</time>
      </trkpt>
      <trkpt lat="50.07552" lon="5.29356">
        <ele>238</ele>
        <time>2017-07-02T09:21:27Z</time>
      </trkpt>
      <trkpt lat="50.07552" lon="5.29343">
        <ele>240</ele>
        <time>2017-07-02T09:21:38Z</time>
      </trkpt>
      <trkpt lat="50.07554" lon="5.29329">
        <ele>242</ele>
        <time>2017-07-02T09:21:49Z</time>
      </trkpt>
      <trkpt lat="50.07555" lon="5.29314">
        <ele>244</ele>
        <time>2017-07-02T09:21:59Z</time>
      </trkpt>
      <trkpt lat="50.07558" lon="5.29299">
        <ele>245</ele>
        <time>2017-07-02T09:22:10Z</time>
      </trkpt>
      <trkpt lat="50.0756" lon="5.29286">
        <ele>247</ele>
        <time>2017-07-02T09:22:21Z</time>
      </trkpt>
      <trkpt lat="50.07565" lon="5.29292">
        <ele>247</ele>
        <time>2017-07-02T09:22:31Z</time>
      </trkpt>
      <trkpt lat="50.07574" lon="5.29297">
        <ele>245</ele>
        <time>2017-07-02T09:22:41Z</time>
      </trkpt>
      <trkpt lat="50.07587" lon="5.29289">
        <ele>247</ele>
        <time>2017-07-02T09:22:52Z</time>
      </trkpt>
      <trkpt lat="50.07597" lon="5.29289">
        <ele>249</ele>
        <time>2017-07-02T09:23:03Z</time>
      </trkpt>
      <trkpt lat="50.07607" lon="5.2929">
        <ele>249</ele>
        <time>2017-07-02T09:23:13Z</time>
      </trkpt>
      <trkpt lat="50.07618" lon="5.29293">
        <ele>251</ele>
        <time>2017-07-02T09:23:23Z</time>
      </trkpt>
      <trkpt lat="50.07632" lon="5.29295">
        <ele>251</ele>
        <time>2017-07-02T09:23:34Z</time>
      </trkpt>
      <trkpt lat="50.07644" lon="5.29297">
        <ele>252</ele>
        <time>2017-07-02T09:23:44Z</time>
      </trkpt>
      <trkpt lat="50.07657" lon="5.29296">
        <ele>254</ele>
        <time>2017-07-02T09:23:54Z</time>
      </trkpt>
      <trkpt lat="50.0767" lon="5.29295">
        <ele>255</ele>
        <time>2017-07-02T09:24:05Z</time>
      </trkpt>
      <trkpt lat="50.07682" lon="5.29289">
        <ele>256</ele>
        <time>2017-07-02T09:24:15Z</time>
      </trkpt>
      <trkpt lat="50.07693" lon="5.29282">
        <ele>258</ele>
        <time>2017-07-02T09:24:26Z</time>
      </trkpt>
      <trkpt lat="50.07704" lon="5.29275">
        <ele>260</ele>
        <time>2017-07-02T09:24:36Z</time>
      </trkpt>
      <trkpt lat="50.07716" lon="5.29271">
        <ele>261</ele>
        <time>2017-07-02T09:24:47Z</time>
      </trkpt>
      <trkpt lat="50.0773" lon="5.29268">
        <ele>263</ele>
        <time>2017-07-02T09:24:57Z</time>
      </trkpt>
      <trkpt lat="50.07743" lon="5.29257">
        <ele>265</ele>
        <time>2017-07-02T09:25:08Z</time>
      </trkpt>
      <trkpt lat="50.07753" lon="5.29248">
        <ele>265</ele>
        <time>2017-07-02T09:25:19Z</time>
      </trkpt>
      <trkpt lat="50.0776" lon="5.29239">
        <ele>268</ele>
        <time>2017-07-02T09:25:30Z</time>
      </trkpt>
      <trkpt lat="50.07767" lon="5.2923">
        <ele>269</ele>
        <time>2017-07-02T09:25:41Z</time>
      </trkpt>
      <trkpt lat="50.07771" lon="5.29218">
        <ele>270</ele>
        <time>2017-07-02T09:25:51Z</time>
      </trkpt>
      <trkpt lat="50.07772" lon="5.29209">
        <ele>271</ele>
        <time>2017-07-02T09:26:01Z</time>
      </trkpt>
      <trkpt lat="50.07777" lon="5.29189">
        <ele>272</ele>
        <time>2017-07-02T09:26:12Z</time>
      </trkpt>
      <trkpt lat="50.07777" lon="5.29171">
        <ele>274</ele>
        <time>2017-07-02T09:26:23Z</time>
      </trkpt>
      <trkpt lat="50.07772" lon="5.29158">
        <ele>275</ele>
        <time>2017-07-02T09:26:33Z</time>
      </trkpt>
      <trkpt lat="50.07764" lon="5.29145">
        <ele>277</ele>
        <time>2017-07-02T09:26:44Z</time>
      </trkpt>
      <trkpt lat="50.07763" lon="5.2914">
        <ele>277</ele>
        <time>2017-07-02T09:26:54Z</time>
      </trkpt>
      <trkpt lat="50.07758" lon="5.29122">
        <ele>278</ele>
        <time>2017-07-02T09:27:04Z</time>
      </trkpt>
      <trkpt lat="50.07754" lon="5.291">
        <ele>279</ele>
        <time>2017-07-02T09:27:15Z</time>
      </trkpt>
      <trkpt lat="50.07747" lon="5.29082">
        <ele>280</ele>
        <time>2017-07-02T09:27:25Z</time>
      </trkpt>
      <trkpt lat="50.07739" lon="5.29063">
        <ele>281</ele>
        <time>2017-07-02T09:27:36Z</time>
      </trkpt>
      <trkpt lat="50.07728" lon="5.29051">
        <ele>282</ele>
        <time>2017-07-02T09:27:46Z</time>
      </trkpt>
      <trkpt lat="50.07716" lon="5.29036">
        <ele>283</ele>
        <time>2017-07-02T09:27:56Z</time>
      </trkpt>
      <trkpt lat="50.07703" lon="5.29021">
        <ele>283</ele>
        <time>2017-07-02T09:28:07Z</time>
      </trkpt>
      <trkpt lat="50.0769" lon="5.29011">
        <ele>283</ele>
        <time>2017-07-02T09:28:17Z</time>
      </trkpt>
      <trkpt lat="50.07679" lon="5.28996">
        <ele>282</ele>
        <time>2017-07-02T09:28:27Z</time>
      </trkpt>
      <trkpt lat="50.07666" lon="5.28984">
        <ele>282</ele>
        <time>2017-07-02T09:28:38Z</time>
      </trkpt>
      <trkpt lat="50.07651" lon="5.28971">
        <ele>282</ele>
        <time>2017-07-02T09:28:49Z</time>
      </trkpt>
      <trkpt lat="50.0764" lon="5.28952">
        <ele>282</ele>
        <time>2017-07-02T09:28:59Z</time>
      </trkpt>
      <trkpt lat="50.07636" lon="5.28925">
        <ele>283</ele>
        <time>2017-07-02T09:29:10Z</time>
      </trkpt>
      <trkpt lat="50.07635" lon="5.28899">
        <ele>284</ele>
        <time>2017-07-02T09:29:20Z</time>
      </trkpt>
      <trkpt lat="50.07634" lon="5.28871">
        <ele>285</ele>
        <time>2017-07-02T09:29:31Z</time>
      </trkpt>
      <trkpt lat="50.07636" lon="5.28848">
        <ele>287</ele>
        <time>2017-07-02T09:29:42Z</time>
      </trkpt>
      <trkpt lat="50.07638" lon="5.28841">
        <ele>286</ele>
        <time>2017-07-02T09:29:53Z</time>
      </trkpt>
      <trkpt lat="50.07644" lon="5.28834">
        <ele>288</ele>
        <time>2017-07-02T09:30:03Z</time>
      </trkpt>
      <trkpt lat="50.07648" lon="5.28817">
        <ele>289</ele>
        <time>2017-07-02T09:30:13Z</time>
      </trkpt>
      <trkpt lat="50.07646" lon="5.28808">
        <ele>291</ele>
        <time>2017-07-02T09:30:23Z</time>
      </trkpt>
      <trkpt lat="50.07648" lon="5.28802">
        <ele>291</ele>
        <time>2017-07-02T09:30:34Z</time>
      </trkpt>
      <trkpt lat="50.07649" lon="5.288">
        <ele>291</ele>
        <time>2017-07-02T09:30:44Z</time>
      </trkpt>
      <trkpt lat="50.0765" lon="5.28803">
        <ele>291</ele>
        <time>2017-07-02T09:30:55Z</time>
      </trkpt>
      <trkpt lat="50.07649" lon="5.28807">
        <ele>291</ele>
        <time>2017-07-02T09:31:05Z</time>
      </trkpt>
      <trkpt lat="50.07652" lon="5.2881">
        <ele>290</ele>
        <time>2017-07-02T09:31:15Z</time>
      </trkpt>
      <trkpt lat="50.07653" lon="5.28812">
        <ele>290</ele>
        <time>2017-07-02T09:31:26Z</time>
      </trkpt>
      <trkpt lat="50.07652" lon="5.28815">
        <ele>291</ele>
        <time>2017-07-02T09:31:36Z</time>
      </trkpt>
      <trkpt lat="50.0764" lon="5.28811">
        <ele>290</ele>
        <time>2017-07-02T09:31:47Z</time>
      </trkpt>
      <trkpt lat="50.07628" lon="5.28798">
        <ele>289</ele>
        <time>2017-07-02T09:31:58Z</time>
      </trkpt>
      <trkpt lat="50.07617" lon="5.28788">
        <ele>288</ele>
        <time>2017-07-02T09:32:08Z</time>
      </trkpt>
      <trkpt lat="50.07594" lon="5.28776">
        <ele>286</ele>
        <time>2017-07-02T09:32:19Z</time>
      </trkpt>
      <trkpt lat="50.07568" lon="5.2876">
        <ele>285</ele>
        <time>2017-07-02T09:32:30Z</time>
      </trkpt>
      <trkpt lat="50.07544" lon="5.28746">
        <ele>285</ele>
        <time>2017-07-02T09:32:40Z</time>
      </trkpt>
      <trkpt lat="50.0752" lon="5.28737">
        <ele>284</ele>
        <time>2017-07-02T09:32:51Z</time>
      </trkpt>
      <trkpt lat="50.07495" lon="5.28726">
        <ele>284</ele>
        <time>2017-07-02T09:33:02Z</time>
      </trkpt>
      <trkpt lat="50.07471" lon="5.2872">
        <ele>284</ele>
        <time>2017-07-02T09:33:13Z</time>
      </trkpt>
      <trkpt lat="50.07456" lon="5.28721">
        <ele>283</ele>
        <time>2017-07-02T09:33:23Z</time>
      </trkpt>
      <trkpt lat="50.07437" lon="5.28727">
        <ele>283</ele>
        <time>2017-07-02T09:33:34Z</time>
      </trkpt>
      <trkpt lat="50.07424" lon="5.28733">
        <ele>283</ele>
        <time>2017-07-02T09:33:44Z</time>
      </trkpt>
      <trkpt lat="50.074" lon="5.28749">
        <ele>283</ele>
        <time>2017-07-02T09:33:55Z</time>
      </trkpt>
      <trkpt lat="50.07378" lon="5.28758">
        <ele>284</ele>
        <time>2017-07-02T09:34:05Z</time>
      </trkpt>
      <trkpt lat="50.07364" lon="5.2876">
        <ele>285</ele>
        <time>2017-07-02T09:34:15Z</time>
      </trkpt>
      <trkpt lat="50.07352" lon="5.28758">
        <ele>285</ele>
        <time>2017-07-02T09:34:26Z</time>
      </trkpt>
      <trkpt lat="50.07351" lon="5.2876">
        <ele>284</ele>
        <time>2017-07-02T09:34:37Z</time>
      </trkpt>
      <trkpt lat="50.0735" lon="5.28761">
        <ele>284</ele>
        <time>2017-07-02T09:34:47Z</time>
      </trkpt>
      <trkpt lat="50.07349" lon="5.28761">
        <ele>284</ele>
        <time>2017-07-02T09:34:59Z</time>
      </trkpt>
      <trkpt lat="50.07348" lon="5.28762">
        <ele>285</ele>
        <time>2017-07-02T09:35:10Z</time>
      </trkpt>
      <trkpt lat="50.07348" lon="5.28761">
        <ele>284</ele>
        <time>2017-07-02T09:35:20Z</time>
      </trkpt>
      <trkpt lat="50.07347" lon="5.28762">
        <ele>285</ele>
        <time>2017-07-02T09:35:31Z</time>
      </trkpt>
      <trkpt lat="50.07347" lon="5.28762">
        <ele>284</ele>
        <time>2017-07-02T09:35:42Z</time>
      </trkpt>
      <trkpt lat="50.07346" lon="5.28762">
        <ele>285</ele>
        <time>2017-07-02T09:35:52Z</time>
      </trkpt>
      <trkpt lat="50.07328" lon="5.28759">
        <ele>286</ele>
        <time>2017-07-02T09:36:02Z</time>
      </trkpt>
      <trkpt lat="50.073" lon="5.28751">
        <ele>284</ele>
        <time>2017-07-02T09:36:13Z</time>
      </trkpt>
      <trkpt lat="50.07276" lon="5.28742">
        <ele>284</ele>
        <time>2017-07-02T09:36:23Z</time>
      </trkpt>
      <trkpt lat="50.07251" lon="5.28732">
        <ele>284</ele>
        <time>2017-07-02T09:36:33Z</time>
      </trkpt>
      <trkpt lat="50.0723" lon="5.28724">
        <ele>282</ele>
        <time>2017-07-02T09:36:43Z</time>
      </trkpt>
      <trkpt lat="50.07206" lon="5.28712">
        <ele>280</ele>
        <time>2017-07-02T09:36:54Z</time>
      </trkpt>
      <trkpt lat="50.0718" lon="5.28698">
        <ele>279</ele>
        <time>2017-07-02T09:37:04Z</time>
      </trkpt>
      <trkpt lat="50.07154" lon="5.28678">
        <ele>277</ele>
        <time>2017-07-02T09:37:15Z</time>
      </trkpt>
      <trkpt lat="50.0713" lon="5.28662">
        <ele>275</ele>
        <time>2017-07-02T09:37:25Z</time>
      </trkpt>
      <trkpt lat="50.07106" lon="5.28639">
        <ele>274</ele>
        <time>2017-07-02T09:37:36Z</time>
      </trkpt>
      <trkpt lat="50.07082" lon="5.28616">
        <ele>273</ele>
        <time>2017-07-02T09:37:47Z</time>
      </trkpt>
      <trkpt lat="50.07061" lon="5.28602">
        <ele>272</ele>
        <time>2017-07-02T09:37:57Z</time>
      </trkpt>
      <trkpt lat="50.07038" lon="5.2859">
        <ele>271</ele>
        <time>2017-07-02T09:38:08Z</time>
      </trkpt>
      <trkpt lat="50.07013" lon="5.28577">
        <ele>270</ele>
        <time>2017-07-02T09:38:19Z</time>
      </trkpt>
      <trkpt lat="50.06991" lon="5.28567">
        <ele>270</ele>
        <time>2017-07-02T09:38:29Z</time>
      </trkpt>
      <trkpt lat="50.0697" lon="5.2856">
        <ele>270</ele>
        <time>2017-07-02T09:38:39Z</time>
      </trkpt>
      <trkpt lat="50.06947" lon="5.28556">
        <ele>270</ele>
        <time>2017-07-02T09:38:49Z</time>
      </trkpt>
      <trkpt lat="50.06921" lon="5.28554">
        <ele>271</ele>
        <time>2017-07-02T09:39:00Z</time>
      </trkpt>
      <trkpt lat="50.06899" lon="5.28553">
        <ele>270</ele>
        <time>2017-07-02T09:39:11Z</time>
      </trkpt>
      <trkpt lat="50.06881" lon="5.28552">
        <ele>270</ele>
        <time>2017-07-02T09:39:22Z</time>
      </trkpt>
      <trkpt lat="50.06863" lon="5.28555">
        <ele>270</ele>
        <time>2017-07-02T09:39:33Z</time>
      </trkpt>
      <trkpt lat="50.06847" lon="5.28557">
        <ele>269</ele>
        <time>2017-07-02T09:39:43Z</time>
      </trkpt>
      <trkpt lat="50.0683" lon="5.28567">
        <ele>270</ele>
        <time>2017-07-02T09:39:54Z</time>
      </trkpt>
      <trkpt lat="50.06818" lon="5.28589">
        <ele>270</ele>
        <time>2017-07-02T09:40:05Z</time>
      </trkpt>
      <trkpt lat="50.0681" lon="5.28611">
        <ele>271</ele>
        <time>2017-07-02T09:40:15Z</time>
      </trkpt>
      <trkpt lat="50.06809" lon="5.28631">
        <ele>271</ele>
        <time>2017-07-02T09:40:25Z</time>
      </trkpt>
      <trkpt lat="50.06808" lon="5.2865">
        <ele>272</ele>
        <time>2017-07-02T09:40:35Z</time>
      </trkpt>
      <trkpt lat="50.06808" lon="5.28675">
        <ele>272</ele>
        <time>2017-07-02T09:40:46Z</time>
      </trkpt>
      <trkpt lat="50.0681" lon="5.28701">
        <ele>273</ele>
        <time>2017-07-02T09:40:56Z</time>
      </trkpt>
      <trkpt lat="50.06808" lon="5.28729">
        <ele>274</ele>
        <time>2017-07-02T09:41:07Z</time>
      </trkpt>
      <trkpt lat="50.06805" lon="5.28752">
        <ele>276</ele>
        <time>2017-07-02T09:41:18Z</time>
      </trkpt>
      <trkpt lat="50.06805" lon="5.28759">
        <ele>277</ele>
        <time>2017-07-02T09:41:28Z</time>
      </trkpt>
      <trkpt lat="50.068" lon="5.28781">
        <ele>277</ele>
        <time>2017-07-02T09:41:38Z</time>
      </trkpt>
      <trkpt lat="50.06796" lon="5.28803">
        <ele>277</ele>
        <time>2017-07-02T09:41:48Z</time>
      </trkpt>
      <trkpt lat="50.06789" lon="5.28828">
        <ele>278</ele>
        <time>2017-07-02T09:41:59Z</time>
      </trkpt>
      <trkpt lat="50.06783" lon="5.2885">
        <ele>279</ele>
        <time>2017-07-02T09:42:10Z</time>
      </trkpt>
      <trkpt lat="50.06775" lon="5.28868">
        <ele>279</ele>
        <time>2017-07-02T09:42:20Z</time>
      </trkpt>
      <trkpt lat="50.06767" lon="5.28884">
        <ele>280</ele>
        <time>2017-07-02T09:42:30Z</time>
      </trkpt>
      <trkpt lat="50.06756" lon="5.28902">
        <ele>280</ele>
        <time>2017-07-02T09:42:41Z</time>
      </trkpt>
      <trkpt lat="50.06745" lon="5.28919">
        <ele>281</ele>
        <time>2017-07-02T09:42:52Z</time>
      </trkpt>
      <trkpt lat="50.06734" lon="5.28938">
        <ele>281</ele>
        <time>2017-07-02T09:43:03Z</time>
      </trkpt>
      <trkpt lat="50.06724" lon="5.28957">
        <ele>282</ele>
        <time>2017-07-02T09:43:13Z</time>
      </trkpt>
      <trkpt lat="50.06714" lon="5.28976">
        <ele>283</ele>
        <time>2017-07-02T09:43:23Z</time>
      </trkpt>
      <trkpt lat="50.06704" lon="5.2899">
        <ele>282</ele>
        <time>2017-07-02T09:43:34Z</time>
      </trkpt>
      <trkpt lat="50.06701" lon="5.28996">
        <ele>282</ele>
        <time>2017-07-02T09:43:44Z</time>
      </trkpt>
      <trkpt lat="50.06699" lon="5.29">
        <ele>282</ele>
        <time>2017-07-02T09:43:54Z</time>
      </trkpt>
      <trkpt lat="50.06688" lon="5.29014">
        <ele>282</ele>
        <time>2017-07-02T09:44:05Z</time>
      </trkpt>
      <trkpt lat="50.06673" lon="5.2903">
        <ele>282</ele>
        <time>2017-07-02T09:44:16Z</time>
      </trkpt>
      <trkpt lat="50.06665" lon="5.29044">
        <ele>282</ele>
        <time>2017-07-02T09:44:26Z</time>
      </trkpt>
      <trkpt lat="50.06655" lon="5.29056">
        <ele>282</ele>
        <time>2017-07-02T09:44:36Z</time>
      </trkpt>
      <trkpt lat="50.0664" lon="5.29076">
        <ele>282</ele>
        <time>2017-07-02T09:44:46Z</time>
      </trkpt>
      <trkpt lat="50.06623" lon="5.29094">
        <ele>282</ele>
        <time>2017-07-02T09:44:56Z</time>
      </trkpt>
      <trkpt lat="50.06601" lon="5.29117">
        <ele>282</ele>
        <time>2017-07-02T09:45:07Z</time>
      </trkpt>
      <trkpt lat="50.06583" lon="5.29137">
        <ele>282</ele>
        <time>2017-07-02T09:45:17Z</time>
      </trkpt>
      <trkpt lat="50.06564" lon="5.29158">
        <ele>282</ele>
        <time>2017-07-02T09:45:28Z</time>
      </trkpt>
      <trkpt lat="50.0655" lon="5.29177">
        <ele>283</ele>
        <time>2017-07-02T09:45:39Z</time>
      </trkpt>
      <trkpt lat="50.06535" lon="5.2919">
        <ele>283</ele>
        <time>2017-07-02T09:45:50Z</time>
      </trkpt>
      <trkpt lat="50.0652" lon="5.29202">
        <ele>283</ele>
        <time>2017-07-02T09:46:00Z</time>
      </trkpt>
      <trkpt lat="50.06504" lon="5.29216">
        <ele>283</ele>
        <time>2017-07-02T09:46:10Z</time>
      </trkpt>
      <trkpt lat="50.06482" lon="5.29231">
        <ele>283</ele>
        <time>2017-07-02T09:46:21Z</time>
      </trkpt>
      <trkpt lat="50.06459" lon="5.29246">
        <ele>284</ele>
        <time>2017-07-02T09:46:32Z</time>
      </trkpt>
      <trkpt lat="50.06444" lon="5.29263">
        <ele>285</ele>
        <time>2017-07-02T09:46:42Z</time>
      </trkpt>
      <trkpt lat="50.06429" lon="5.29292">
        <ele>286</ele>
        <time>2017-07-02T09:46:53Z</time>
      </trkpt>
      <trkpt lat="50.06414" lon="5.29307">
        <ele>286</ele>
        <time>2017-07-02T09:47:04Z</time>
      </trkpt>
      <trkpt lat="50.06403" lon="5.29299">
        <ele>288</ele>
        <time>2017-07-02T09:47:14Z</time>
      </trkpt>
      <trkpt lat="50.06397" lon="5.29287">
        <ele>289</ele>
        <time>2017-07-02T09:47:25Z</time>
      </trkpt>
      <trkpt lat="50.06388" lon="5.29271">
        <ele>290</ele>
        <time>2017-07-02T09:47:35Z</time>
      </trkpt>
      <trkpt lat="50.06381" lon="5.29255">
        <ele>291</ele>
        <time>2017-07-02T09:47:46Z</time>
      </trkpt>
      <trkpt lat="50.06373" lon="5.29239">
        <ele>292</ele>
        <time>2017-07-02T09:47:56Z</time>
      </trkpt>
      <trkpt lat="50.06357" lon="5.29227">
        <ele>294</ele>
        <time>2017-07-02T09:48:06Z</time>
      </trkpt>
      <trkpt lat="50.06345" lon="5.2924">
        <ele>294</ele>
        <time>2017-07-02T09:48:17Z</time>
      </trkpt>
      <trkpt lat="50.06336" lon="5.29254">
        <ele>294</ele>
        <time>2017-07-02T09:48:27Z</time>
      </trkpt>
      <trkpt lat="50.06323" lon="5.2927">
        <ele>294</ele>
        <time>2017-07-02T09:48:38Z</time>
      </trkpt>
      <trkpt lat="50.06315" lon="5.29286">
        <ele>295</ele>
        <time>2017-07-02T09:48:48Z</time>
      </trkpt>
      <trkpt lat="50.06311" lon="5.29303">
        <ele>295</ele>
        <time>2017-07-02T09:48:58Z</time>
      </trkpt>
      <trkpt lat="50.06307" lon="5.29324">
        <ele>294</ele>
        <time>2017-07-02T09:49:09Z</time>
      </trkpt>
      <trkpt lat="50.063" lon="5.29343">
        <ele>294</ele>
        <time>2017-07-02T09:49:19Z</time>
      </trkpt>
      <trkpt lat="50.06296" lon="5.29355">
        <ele>295</ele>
        <time>2017-07-02T09:49:30Z</time>
      </trkpt>
      <trkpt lat="50.06295" lon="5.29357">
        <ele>294</ele>
        <time>2017-07-02T09:49:40Z</time>
      </trkpt>
      <trkpt lat="50.06297" lon="5.29358">
        <ele>294</ele>
        <time>2017-07-02T09:49:51Z</time>
      </trkpt>
      <trkpt lat="50.06299" lon="5.29359">
        <ele>295</ele>
        <time>2017-07-02T09:50:02Z</time>
      </trkpt>
      <trkpt lat="50.06298" lon="5.29365">
        <ele>294</ele>
        <time>2017-07-02T09:50:12Z</time>
      </trkpt>
      <trkpt lat="50.06289" lon="5.29384">
        <ele>295</ele>
        <time>2017-07-02T09:50:23Z</time>
      </trkpt>
      <trkpt lat="50.06285" lon="5.29387">
        <ele>295</ele>
        <time>2017-07-02T09:50:33Z</time>
      </trkpt>
      <trkpt lat="50.06279" lon="5.29404">
        <ele>295</ele>
        <time>2017-07-02T09:50:43Z</time>
      </trkpt>
      <trkpt lat="50.06273" lon="5.29427">
        <ele>295</ele>
        <time>2017-07-02T09:50:54Z</time>
      </trkpt>
      <trkpt lat="50.06265" lon="5.29448">
        <ele>295</ele>
        <time>2017-07-02T09:51:05Z</time>
      </trkpt>
      <trkpt lat="50.06257" lon="5.29469">
        <ele>296</ele>
        <time>2017-07-02T09:51:16Z</time>
      </trkpt>
      <trkpt lat="50.06249" lon="5.29485">
        <ele>296</ele>
        <time>2017-07-02T09:51:26Z</time>
      </trkpt>
      <trkpt lat="50.06245" lon="5.29498">
        <ele>297</ele>
        <time>2017-07-02T09:51:36Z</time>
      </trkpt>
      <trkpt lat="50.06244" lon="5.29502">
        <ele>297</ele>
        <time>2017-07-02T09:51:47Z</time>
      </trkpt>
      <trkpt lat="50.06239" lon="5.29509">
        <ele>299</ele>
        <time>2017-07-02T09:51:57Z</time>
      </trkpt>
      <trkpt lat="50.06233" lon="5.29522">
        <ele>299</ele>
        <time>2017-07-02T09:52:07Z</time>
      </trkpt>
      <trkpt lat="50.06228" lon="5.29534">
        <ele>300</ele>
        <time>2017-07-02T09:52:17Z</time>
      </trkpt>
      <trkpt lat="50.06221" lon="5.29549">
        <ele>302</ele>
        <time>2017-07-02T09:52:28Z</time>
      </trkpt>
      <trkpt lat="50.06213" lon="5.29565">
        <ele>304</ele>
        <time>2017-07-02T09:52:38Z</time>
      </trkpt>
      <trkpt lat="50.06207" lon="5.29582">
        <ele>305</ele>
        <time>2017-07-02T09:52:49Z</time>
      </trkpt>
      <trkpt lat="50.06201" lon="5.29598">
        <ele>307</ele>
        <time>2017-07-02T09:53:00Z</time>
      </trkpt>
      <trkpt lat="50.06196" lon="5.2961">
        <ele>308</ele>
        <time>2017-07-02T09:53:10Z</time>
      </trkpt>
      <trkpt lat="50.06192" lon="5.29625">
        <ele>310</ele>
        <time>2017-07-02T09:53:21Z</time>
      </trkpt>
      <trkpt lat="50.06188" lon="5.2964">
        <ele>312</ele>
        <time>2017-07-02T09:53:31Z</time>
      </trkpt>
      <trkpt lat="50.06181" lon="5.29656">
        <ele>313</ele>
        <time>2017-07-02T09:53:41Z</time>
      </trkpt>
      <trkpt lat="50.06175" lon="5.29676">
        <ele>314</ele>
        <time>2017-07-02T09:53:51Z</time>
      </trkpt>
      <trkpt lat="50.06168" lon="5.29692">
        <ele>316</ele>
        <time>2017-07-02T09:54:02Z</time>
      </trkpt>
      <trkpt lat="50.06163" lon="5.29705">
        <ele>317</ele>
        <time>2017-07-02T09:54:12Z</time>
      </trkpt>
      <trkpt lat="50.06157" lon="5.29718">
        <ele>318</ele>
        <time>2017-07-02T09:54:22Z</time>
      </trkpt>
      <trkpt lat="50.06146" lon="5.2973">
        <ele>320</ele>
        <time>2017-07-02T09:54:33Z</time>
      </trkpt>
      <trkpt lat="50.06136" lon="5.2974">
        <ele>322</ele>
        <time>2017-07-02T09:54:44Z</time>
      </trkpt>
      <trkpt lat="50.06126" lon="5.29749">
        <ele>324</ele>
        <time>2017-07-02T09:54:55Z</time>
      </trkpt>
      <trkpt lat="50.06114" lon="5.29756">
        <ele>325</ele>
        <time>2017-07-02T09:55:06Z</time>
      </trkpt>
      <trkpt lat="50.06102" lon="5.29761">
        <ele>328</ele>
        <time>2017-07-02T09:55:17Z</time>
      </trkpt>
      <trkpt lat="50.06091" lon="5.29764">
        <ele>329</ele>
        <time>2017-07-02T09:55:27Z</time>
      </trkpt>
      <trkpt lat="50.06079" lon="5.29767">
        <ele>330</ele>
        <time>2017-07-02T09:55:38Z</time>
      </trkpt>
      <trkpt lat="50.06067" lon="5.29775">
        <ele>331</ele>
        <time>2017-07-02T09:55:48Z</time>
      </trkpt>
      <trkpt lat="50.06056" lon="5.29783">
        <ele>333</ele>
        <time>2017-07-02T09:55:58Z</time>
      </trkpt>
      <trkpt lat="50.06048" lon="5.2979">
        <ele>335</ele>
        <time>2017-07-02T09:56:08Z</time>
      </trkpt>
      <trkpt lat="50.06038" lon="5.298">
        <ele>336</ele>
        <time>2017-07-02T09:56:19Z</time>
      </trkpt>
      <trkpt lat="50.06031" lon="5.29807">
        <ele>339</ele>
        <time>2017-07-02T09:56:29Z</time>
      </trkpt>
      <trkpt lat="50.06024" lon="5.29813">
        <ele>341</ele>
        <time>2017-07-02T09:56:39Z</time>
      </trkpt>
      <trkpt lat="50.06014" lon="5.29821">
        <ele>343</ele>
        <time>2017-07-02T09:56:50Z</time>
      </trkpt>
      <trkpt lat="50.06007" lon="5.2983">
        <ele>344</ele>
        <time>2017-07-02T09:57:00Z</time>
      </trkpt>
      <trkpt lat="50.05997" lon="5.29844">
        <ele>346</ele>
        <time>2017-07-02T09:57:11Z</time>
      </trkpt>
      <trkpt lat="50.05987" lon="5.29853">
        <ele>346</ele>
        <time>2017-07-02T09:57:21Z</time>
      </trkpt>
      <trkpt lat="50.05975" lon="5.29864">
        <ele>347</ele>
        <time>2017-07-02T09:57:31Z</time>
      </trkpt>
      <trkpt lat="50.05962" lon="5.29876">
        <ele>349</ele>
        <time>2017-07-02T09:57:42Z</time>
      </trkpt>
      <trkpt lat="50.05952" lon="5.29886">
        <ele>350</ele>
        <time>2017-07-02T09:57:52Z</time>
      </trkpt>
      <trkpt lat="50.05943" lon="5.29896">
        <ele>352</ele>
        <time>2017-07-02T09:58:02Z</time>
      </trkpt>
      <trkpt lat="50.05932" lon="5.29907">
        <ele>353</ele>
        <time>2017-07-02T09:58:13Z</time>
      </trkpt>
      <trkpt lat="50.05921" lon="5.29915">
        <ele>354</ele>
        <time>2017-07-02T09:58:23Z</time>
      </trkpt>
      <trkpt lat="50.05911" lon="5.29919">
        <ele>356</ele>
        <time>2017-07-02T09:58:33Z</time>
      </trkpt>
      <trkpt lat="50.059" lon="5.29923">
        <ele>356</ele>
        <time>2017-07-02T09:58:44Z</time>
      </trkpt>
      <trkpt lat="50.05887" lon="5.29927">
        <ele>357</ele>
        <time>2017-07-02T09:58:54Z</time>
      </trkpt>
      <trkpt lat="50.05872" lon="5.29925">
        <ele>357</ele>
        <time>2017-07-02T09:59:05Z</time>
      </trkpt>
      <trkpt lat="50.05855" lon="5.29925">
        <ele>358</ele>
        <time>2017-07-02T09:59:15Z</time>
      </trkpt>
      <trkpt lat="50.05839" lon="5.29922">
        <ele>358</ele>
        <time>2017-07-02T09:59:25Z</time>
      </trkpt>
      <trkpt lat="50.05824" lon="5.29924">
        <ele>358</ele>
        <time>2017-07-02T09:59:35Z</time>
      </trkpt>
      <trkpt lat="50.05805" lon="5.29921">
        <ele>357</ele>
        <time>2017-07-02T09:59:46Z</time>
      </trkpt>
      <trkpt lat="50.0579" lon="5.29915">
        <ele>357</ele>
        <time>2017-07-02T09:59:56Z</time>
      </trkpt>
      <trkpt lat="50.05774" lon="5.29913">
        <ele>356</ele>
        <time>2017-07-02T10:00:07Z</time>
      </trkpt>
      <trkpt lat="50.05754" lon="5.29919">
        <ele>355</ele>
        <time>2017-07-02T10:00:18Z</time>
      </trkpt>
      <trkpt lat="50.05727" lon="5.29929">
        <ele>354</ele>
        <time>2017-07-02T10:00:28Z</time>
      </trkpt>
      <trkpt lat="50.05706" lon="5.29944">
        <ele>352</ele>
        <time>2017-07-02T10:00:39Z</time>
      </trkpt>
      <trkpt lat="50.05687" lon="5.29955">
        <ele>350</ele>
        <time>2017-07-02T10:00:49Z</time>
      </trkpt>
      <trkpt lat="50.05664" lon="5.29967">
        <ele>347</ele>
        <time>2017-07-02T10:00:59Z</time>
      </trkpt>
      <trkpt lat="50.05645" lon="5.29969">
        <ele>345</ele>
        <time>2017-07-02T10:01:09Z</time>
      </trkpt>
      <trkpt lat="50.05617" lon="5.29967">
        <ele>344</ele>
        <time>2017-07-02T10:01:20Z</time>
      </trkpt>
      <trkpt lat="50.05586" lon="5.29973">
        <ele>342</ele>
        <time>2017-07-02T10:01:31Z</time>
      </trkpt>
      <trkpt lat="50.05565" lon="5.29993">
        <ele>342</ele>
        <time>2017-07-02T10:01:41Z</time>
      </trkpt>
      <trkpt lat="50.05549" lon="5.30023">
        <ele>343</ele>
        <time>2017-07-02T10:01:52Z</time>
      </trkpt>
      <trkpt lat="50.05538" lon="5.30045">
        <ele>345</ele>
        <time>2017-07-02T10:02:02Z</time>
      </trkpt>
      <trkpt lat="50.05529" lon="5.30057">
        <ele>345</ele>
        <time>2017-07-02T10:02:12Z</time>
      </trkpt>
      <trkpt lat="50.05519" lon="5.3007">
        <ele>346</ele>
        <time>2017-07-02T10:02:23Z</time>
      </trkpt>
      <trkpt lat="50.05508" lon="5.30087">
        <ele>346</ele>
        <time>2017-07-02T10:02:34Z</time>
      </trkpt>
      <trkpt lat="50.05503" lon="5.301">
        <ele>347</ele>
        <time>2017-07-02T10:02:45Z</time>
      </trkpt>
      <trkpt lat="50.05497" lon="5.30117">
        <ele>348</ele>
        <time>2017-07-02T10:02:55Z</time>
      </trkpt>
      <trkpt lat="50.05487" lon="5.30139">
        <ele>348</ele>
        <time>2017-07-02T10:03:06Z</time>
      </trkpt>
      <trkpt lat="50.0548" lon="5.30155">
        <ele>350</ele>
        <time>2017-07-02T10:03:16Z</time>
      </trkpt>
      <trkpt lat="50.05468" lon="5.30174">
        <ele>351</ele>
        <time>2017-07-02T10:03:26Z</time>
      </trkpt>
      <trkpt lat="50.0546" lon="5.30193">
        <ele>352</ele>
        <time>2017-07-02T10:03:37Z</time>
      </trkpt>
      <trkpt lat="50.0545" lon="5.30212">
        <ele>353</ele>
        <time>2017-07-02T10:03:47Z</time>
      </trkpt>
      <trkpt lat="50.0544" lon="5.30228">
        <ele>354</ele>
        <time>2017-07-02T10:03:57Z</time>
      </trkpt>
      <trkpt lat="50.05429" lon="5.30243">
        <ele>355</ele>
        <time>2017-07-02T10:04:07Z</time>
      </trkpt>
      <trkpt lat="50.05419" lon="5.30256">
        <ele>357</ele>
        <time>2017-07-02T10:04:18Z</time>
      </trkpt>
      <trkpt lat="50.05408" lon="5.30274">
        <ele>359</ele>
        <time>2017-07-02T10:04:28Z</time>
      </trkpt>
      <trkpt lat="50.05397" lon="5.30289">
        <ele>360</ele>
        <time>2017-07-02T10:04:38Z</time>
      </trkpt>
      <trkpt lat="50.05384" lon="5.30305">
        <ele>361</ele>
        <time>2017-07-02T10:04:48Z</time>
      </trkpt>
      <trkpt lat="50.05373" lon="5.30319">
        <ele>363</ele>
        <time>2017-07-02T10:04:59Z</time>
      </trkpt>
      <trkpt lat="50.05363" lon="5.30335">
        <ele>363</ele>
        <time>2017-07-02T10:05:09Z</time>
      </trkpt>
      <trkpt lat="50.05349" lon="5.30354">
        <ele>364</ele>
        <time>2017-07-02T10:05:19Z</time>
      </trkpt>
      <trkpt lat="50.05339" lon="5.30376">
        <ele>365</ele>
        <time>2017-07-02T10:05:30Z</time>
      </trkpt>
      <trkpt lat="50.0533" lon="5.30392">
        <ele>366</ele>
        <time>2017-07-02T10:05:40Z</time>
      </trkpt>
      <trkpt lat="50.05324" lon="5.30407">
        <ele>367</ele>
        <time>2017-07-02T10:05:50Z</time>
      </trkpt>
      <trkpt lat="50.05318" lon="5.3043">
        <ele>368</ele>
        <time>2017-07-02T10:06:01Z</time>
      </trkpt>
      <trkpt lat="50.05311" lon="5.30452">
        <ele>369</ele>
        <time>2017-07-02T10:06:12Z</time>
      </trkpt>
      <trkpt lat="50.05307" lon="5.30472">
        <ele>369</ele>
        <time>2017-07-02T10:06:22Z</time>
      </trkpt>
      <trkpt lat="50.053" lon="5.30492">
        <ele>369</ele>
        <time>2017-07-02T10:06:32Z</time>
      </trkpt>
      <trkpt lat="50.05291" lon="5.30518">
        <ele>368</ele>
        <time>2017-07-02T10:06:43Z</time>
      </trkpt>
      <trkpt lat="50.05286" lon="5.3054">
        <ele>368</ele>
        <time>2017-07-02T10:06:53Z</time>
      </trkpt>
      <trkpt lat="50.05281" lon="5.30568">
        <ele>368</ele>
        <time>2017-07-02T10:07:04Z</time>
      </trkpt>
      <trkpt lat="50.05275" lon="5.30594">
        <ele>368</ele>
        <time>2017-07-02T10:07:15Z</time>
      </trkpt>
      <trkpt lat="50.05267" lon="5.30618">
        <ele>368</ele>
        <time>2017-07-02T10:07:25Z</time>
      </trkpt>
      <trkpt lat="50.05254" lon="5.30652">
        <ele>366</ele>
        <time>2017-07-02T10:07:35Z</time>
      </trkpt>
      <trkpt lat="50.05241" lon="5.30681">
        <ele>364</ele>
        <time>2017-07-02T10:07:45Z</time>
      </trkpt>
      <trkpt lat="50.05228" lon="5.30701">
        <ele>361</ele>
        <time>2017-07-02T10:07:55Z</time>
      </trkpt>
      <trkpt lat="50.05214" lon="5.30717">
        <ele>361</ele>
        <time>2017-07-02T10:08:05Z</time>
      </trkpt>
      <trkpt lat="50.05196" lon="5.30733">
        <ele>357</ele>
        <time>2017-07-02T10:08:16Z</time>
      </trkpt>
      <trkpt lat="50.05181" lon="5.30752">
        <ele>357</ele>
        <time>2017-07-02T10:08:26Z</time>
      </trkpt>
      <trkpt lat="50.05185" lon="5.30773">
        <ele>359</ele>
        <time>2017-07-02T10:08:37Z</time>
      </trkpt>
      <trkpt lat="50.05197" lon="5.30785">
        <ele>361</ele>
        <time>2017-07-02T10:08:47Z</time>
      </trkpt>
      <trkpt lat="50.05209" lon="5.30792">
        <ele>363</ele>
        <time>2017-07-02T10:08:57Z</time>
      </trkpt>
      <trkpt lat="50.0522" lon="5.30796">
        <ele>364</ele>
        <time>2017-07-02T10:09:08Z</time>
      </trkpt>
      <trkpt lat="50.05231" lon="5.30799">
        <ele>366</ele>
        <time>2017-07-02T10:09:19Z</time>
      </trkpt>
      <trkpt lat="50.05243" lon="5.30801">
        <ele>367</ele>
        <time>2017-07-02T10:09:29Z</time>
      </trkpt>
      <trkpt lat="50.05253" lon="5.30803">
        <ele>369</ele>
        <time>2017-07-02T10:09:39Z</time>
      </trkpt>
      <trkpt lat="50.05264" lon="5.30801">
        <ele>370</ele>
        <time>2017-07-02T10:09:49Z</time>
      </trkpt>
      <trkpt lat="50.05279" lon="5.30804">
        <ele>372</ele>
        <time>2017-07-02T10:10:00Z</time>
      </trkpt>
      <trkpt lat="50.05294" lon="5.30808">
        <ele>373</ele>
        <time>2017-07-02T10:10:10Z</time>
      </trkpt>
      <trkpt lat="50.05308" lon="5.30815">
        <ele>374</ele>
        <time>2017-07-02T10:10:21Z</time>
      </trkpt>
      <trkpt lat="50.05319" lon="5.30819">
        <ele>375</ele>
        <time>2017-07-02T10:10:31Z</time>
      </trkpt>
      <trkpt lat="50.05332" lon="5.3082">
        <ele>376</ele>
        <time>2017-07-02T10:10:41Z</time>
      </trkpt>
      <trkpt lat="50.05345" lon="5.30821">
        <ele>378</ele>
        <time>2017-07-02T10:10:51Z</time>
      </trkpt>
      <trkpt lat="50.05359" lon="5.30822">
        <ele>379</ele>
        <time>2017-07-02T10:11:01Z</time>
      </trkpt>
      <trkpt lat="50.05374" lon="5.30829">
        <ele>379</ele>
        <time>2017-07-02T10:11:12Z</time>
      </trkpt>
      <trkpt lat="50.05391" lon="5.30832">
        <ele>380</ele>
        <time>2017-07-02T10:11:22Z</time>
      </trkpt>
      <trkpt lat="50.05407" lon="5.30833">
        <ele>381</ele>
        <time>2017-07-02T10:11:32Z</time>
      </trkpt>
      <trkpt lat="50.05423" lon="5.30833">
        <ele>381</ele>
        <time>2017-07-02T10:11:43Z</time>
      </trkpt>
      <trkpt lat="50.0544" lon="5.30839">
        <ele>381</ele>
        <time>2017-07-02T10:11:54Z</time>
      </trkpt>
      <trkpt lat="50.05453" lon="5.30848">
        <ele>381</ele>
        <time>2017-07-02T10:12:04Z</time>
      </trkpt>
      <trkpt lat="50.05475" lon="5.30866">
        <ele>381</ele>
        <time>2017-07-02T10:12:15Z</time>
      </trkpt>
      <trkpt lat="50.05502" lon="5.30887">
        <ele>381</ele>
        <time>2017-07-02T10:12:25Z</time>
      </trkpt>
      <trkpt lat="50.05526" lon="5.30904">
        <ele>381</ele>
        <time>2017-07-02T10:12:35Z</time>
      </trkpt>
      <trkpt lat="50.0555" lon="5.30923">
        <ele>380</ele>
        <time>2017-07-02T10:12:45Z</time>
      </trkpt>
      <trkpt lat="50.05576" lon="5.30947">
        <ele>379</ele>
        <time>2017-07-02T10:12:56Z</time>
      </trkpt>
      <trkpt lat="50.05598" lon="5.30965">
        <ele>379</ele>
        <time>2017-07-02T10:13:06Z</time>
      </trkpt>
      <trkpt lat="50.05621" lon="5.30989">
        <ele>378</ele>
        <time>2017-07-02T10:13:16Z</time>
      </trkpt>
      <trkpt lat="50.05642" lon="5.31008">
        <ele>378</ele>
        <time>2017-07-02T10:13:26Z</time>
      </trkpt>
      <trkpt lat="50.05663" lon="5.31024">
        <ele>378</ele>
        <time>2017-07-02T10:13:37Z</time>
      </trkpt>
      <trkpt lat="50.05684" lon="5.31037">
        <ele>378</ele>
        <time>2017-07-02T10:13:47Z</time>
      </trkpt>
      <trkpt lat="50.05704" lon="5.31054">
        <ele>378</ele>
        <time>2017-07-02T10:13:58Z</time>
      </trkpt>
      <trkpt lat="50.05727" lon="5.31064">
        <ele>378</ele>
        <time>2017-07-02T10:14:08Z</time>
      </trkpt>
      <trkpt lat="50.05746" lon="5.31074">
        <ele>377</ele>
        <time>2017-07-02T10:14:18Z</time>
      </trkpt>
      <trkpt lat="50.05768" lon="5.31087">
        <ele>377</ele>
        <time>2017-07-02T10:14:29Z</time>
      </trkpt>
      <trkpt lat="50.05789" lon="5.31096">
        <ele>377</ele>
        <time>2017-07-02T10:14:39Z</time>
      </trkpt>
      <trkpt lat="50.05809" lon="5.31109">
        <ele>376</ele>
        <time>2017-07-02T10:14:49Z</time>
      </trkpt>
      <trkpt lat="50.0583" lon="5.31122">
        <ele>375</ele>
        <time>2017-07-02T10:14:59Z</time>
      </trkpt>
      <trkpt lat="50.05852" lon="5.31136">
        <ele>375</ele>
        <time>2017-07-02T10:15:09Z</time>
      </trkpt>
      <trkpt lat="50.05871" lon="5.31135">
        <ele>374</ele>
        <time>2017-07-02T10:15:19Z</time>
      </trkpt>
      <trkpt lat="50.05892" lon="5.31133">
        <ele>373</ele>
        <time>2017-07-02T10:15:30Z</time>
      </trkpt>
      <trkpt lat="50.05912" lon="5.3113">
        <ele>371</ele>
        <time>2017-07-02T10:15:41Z</time>
      </trkpt>
      <trkpt lat="50.05935" lon="5.3113">
        <ele>368</ele>
        <time>2017-07-02T10:15:51Z</time>
      </trkpt>
      <trkpt lat="50.05952" lon="5.31131">
        <ele>365</ele>
        <time>2017-07-02T10:16:02Z</time>
      </trkpt>
      <trkpt lat="50.05968" lon="5.3112">
        <ele>363</ele>
        <time>2017-07-02T10:16:13Z</time>
      </trkpt>
      <trkpt lat="50.05987" lon="5.31119">
        <ele>361</ele>
        <time>2017-07-02T10:16:24Z</time>
      </trkpt>
      <trkpt lat="50.06004" lon="5.31141">
        <ele>359</ele>
        <time>2017-07-02T10:16:34Z</time>
      </trkpt>
      <trkpt lat="50.06025" lon="5.31165">
        <ele>357</ele>
        <time>2017-07-02T10:16:45Z</time>
      </trkpt>
      <trkpt lat="50.06041" lon="5.31188">
        <ele>355</ele>
        <time>2017-07-02T10:16:55Z</time>
      </trkpt>
      <trkpt lat="50.06058" lon="5.31214">
        <ele>353</ele>
        <time>2017-07-02T10:17:06Z</time>
      </trkpt>
      <trkpt lat="50.06074" lon="5.31233">
        <ele>352</ele>
        <time>2017-07-02T10:17:16Z</time>
      </trkpt>
      <trkpt lat="50.06091" lon="5.31254">
        <ele>349</ele>
        <time>2017-07-02T10:17:27Z</time>
      </trkpt>
      <trkpt lat="50.06108" lon="5.31269">
        <ele>347</ele>
        <time>2017-07-02T10:17:37Z</time>
      </trkpt>
      <trkpt lat="50.06127" lon="5.31283">
        <ele>345</ele>
        <time>2017-07-02T10:17:47Z</time>
      </trkpt>
      <trkpt lat="50.06146" lon="5.31298">
        <ele>343</ele>
        <time>2017-07-02T10:17:57Z</time>
      </trkpt>
      <trkpt lat="50.06165" lon="5.31315">
        <ele>340</ele>
        <time>2017-07-02T10:18:08Z</time>
      </trkpt>
      <trkpt lat="50.06181" lon="5.31332">
        <ele>337</ele>
        <time>2017-07-02T10:18:18Z</time>
      </trkpt>
      <trkpt lat="50.06199" lon="5.3135">
        <ele>334</ele>
        <time>2017-07-02T10:18:29Z</time>
      </trkpt>
      <trkpt lat="50.06214" lon="5.31369">
        <ele>331</ele>
        <time>2017-07-02T10:18:39Z</time>
      </trkpt>
      <trkpt lat="50.06229" lon="5.31393">
        <ele>328</ele>
        <time>2017-07-02T10:18:50Z</time>
      </trkpt>
      <trkpt lat="50.06245" lon="5.31416">
        <ele>325</ele>
        <time>2017-07-02T10:19:00Z</time>
      </trkpt>
      <trkpt lat="50.06264" lon="5.31436">
        <ele>322</ele>
        <time>2017-07-02T10:19:10Z</time>
      </trkpt>
      <trkpt lat="50.06287" lon="5.31458">
        <ele>322</ele>
        <time>2017-07-02T10:19:20Z</time>
      </trkpt>
      <trkpt lat="50.06308" lon="5.31475">
        <ele>319</ele>
        <time>2017-07-02T10:19:31Z</time>
      </trkpt>
      <trkpt lat="50.06322" lon="5.31489">
        <ele>317</ele>
        <time>2017-07-02T10:19:41Z</time>
      </trkpt>
      <trkpt lat="50.06343" lon="5.3151">
        <ele>315</ele>
        <time>2017-07-02T10:19:52Z</time>
      </trkpt>
      <trkpt lat="50.06361" lon="5.3153">
        <ele>313</ele>
        <time>2017-07-02T10:20:02Z</time>
      </trkpt>
      <trkpt lat="50.06385" lon="5.31545">
        <ele>311</ele>
        <time>2017-07-02T10:20:13Z</time>
      </trkpt>
      <trkpt lat="50.06402" lon="5.31563">
        <ele>308</ele>
        <time>2017-07-02T10:20:23Z</time>
      </trkpt>
      <trkpt lat="50.06427" lon="5.31586">
        <ele>305</ele>
        <time>2017-07-02T10:20:34Z</time>
      </trkpt>
      <trkpt lat="50.06454" lon="5.31608">
        <ele>303</ele>
        <time>2017-07-02T10:20:45Z</time>
      </trkpt>
      <trkpt lat="50.06475" lon="5.31626">
        <ele>301</ele>
        <time>2017-07-02T10:20:55Z</time>
      </trkpt>
      <trkpt lat="50.06498" lon="5.31636">
        <ele>300</ele>
        <time>2017-07-02T10:21:06Z</time>
      </trkpt>
      <trkpt lat="50.06524" lon="5.31644">
        <ele>297</ele>
        <time>2017-07-02T10:21:16Z</time>
      </trkpt>
      <trkpt lat="50.0655" lon="5.31645">
        <ele>296</ele>
        <time>2017-07-02T10:21:26Z</time>
      </trkpt>
      <trkpt lat="50.06574" lon="5.31638">
        <ele>295</ele>
        <time>2017-07-02T10:21:36Z</time>
      </trkpt>
      <trkpt lat="50.06594" lon="5.31628">
        <ele>295</ele>
        <time>2017-07-02T10:21:46Z</time>
      </trkpt>
      <trkpt lat="50.06615" lon="5.31608">
        <ele>293</ele>
        <time>2017-07-02T10:21:57Z</time>
      </trkpt>
      <trkpt lat="50.06635" lon="5.31588">
        <ele>292</ele>
        <time>2017-07-02T10:22:07Z</time>
      </trkpt>
      <trkpt lat="50.06657" lon="5.31565">
        <ele>291</ele>
        <time>2017-07-02T10:22:18Z</time>
      </trkpt>
      <trkpt lat="50.06676" lon="5.31539">
        <ele>290</ele>
        <time>2017-07-02T10:22:28Z</time>
      </trkpt>
      <trkpt lat="50.06693" lon="5.31516">
        <ele>288</ele>
        <time>2017-07-02T10:22:38Z</time>
      </trkpt>
      <trkpt lat="50.06711" lon="5.3149">
        <ele>286</ele>
        <time>2017-07-02T10:22:49Z</time>
      </trkpt>
      <trkpt lat="50.0673" lon="5.31463">
        <ele>285</ele>
        <time>2017-07-02T10:22:59Z</time>
      </trkpt>
      <trkpt lat="50.0675" lon="5.31437">
        <ele>284</ele>
        <time>2017-07-02T10:23:09Z</time>
      </trkpt>
      <trkpt lat="50.06771" lon="5.31415">
        <ele>282</ele>
        <time>2017-07-02T10:23:20Z</time>
      </trkpt>
      <trkpt lat="50.06794" lon="5.31393">
        <ele>280</ele>
        <time>2017-07-02T10:23:31Z</time>
      </trkpt>
      <trkpt lat="50.06812" lon="5.31378">
        <ele>278</ele>
        <time>2017-07-02T10:23:41Z</time>
      </trkpt>
      <trkpt lat="50.06832" lon="5.31361">
        <ele>276</ele>
        <time>2017-07-02T10:23:51Z</time>
      </trkpt>
      <trkpt lat="50.0685" lon="5.31342">
        <ele>273</ele>
        <time>2017-07-02T10:24:02Z</time>
      </trkpt>
      <trkpt lat="50.06872" lon="5.31319">
        <ele>272</ele>
        <time>2017-07-02T10:24:13Z</time>
      </trkpt>
      <trkpt lat="50.06893" lon="5.313">
        <ele>270</ele>
        <time>2017-07-02T10:24:23Z</time>
      </trkpt>
      <trkpt lat="50.06908" lon="5.31281">
        <ele>268</ele>
        <time>2017-07-02T10:24:34Z</time>
      </trkpt>
      <trkpt lat="50.06923" lon="5.31264">
        <ele>266</ele>
        <time>2017-07-02T10:24:44Z</time>
      </trkpt>
      <trkpt lat="50.06938" lon="5.31249">
        <ele>264</ele>
        <time>2017-07-02T10:24:54Z</time>
      </trkpt>
      <trkpt lat="50.06963" lon="5.31236">
        <ele>261</ele>
        <time>2017-07-02T10:25:05Z</time>
      </trkpt>
      <trkpt lat="50.06986" lon="5.31225">
        <ele>259</ele>
        <time>2017-07-02T10:25:15Z</time>
      </trkpt>
      <trkpt lat="50.07007" lon="5.31216">
        <ele>257</ele>
        <time>2017-07-02T10:25:25Z</time>
      </trkpt>
      <trkpt lat="50.07028" lon="5.3121">
        <ele>255</ele>
        <time>2017-07-02T10:25:35Z</time>
      </trkpt>
      <trkpt lat="50.07048" lon="5.31201">
        <ele>255</ele>
        <time>2017-07-02T10:25:46Z</time>
      </trkpt>
      <trkpt lat="50.07059" lon="5.31186">
        <ele>255</ele>
        <time>2017-07-02T10:25:56Z</time>
      </trkpt>
      <trkpt lat="50.07068" lon="5.31166">
        <ele>256</ele>
        <time>2017-07-02T10:26:06Z</time>
      </trkpt>
      <trkpt lat="50.07074" lon="5.31147">
        <ele>257</ele>
        <time>2017-07-02T10:26:16Z</time>
      </trkpt>
      <trkpt lat="50.07079" lon="5.31124">
        <ele>257</ele>
        <time>2017-07-02T10:26:27Z</time>
      </trkpt>
      <trkpt lat="50.07082" lon="5.31102">
        <ele>259</ele>
        <time>2017-07-02T10:26:37Z</time>
      </trkpt>
      <trkpt lat="50.07084" lon="5.31078">
        <ele>259</ele>
        <time>2017-07-02T10:26:48Z</time>
      </trkpt>
      <trkpt lat="50.07084" lon="5.31057">
        <ele>260</ele>
        <time>2017-07-02T10:26:59Z</time>
      </trkpt>
      <trkpt lat="50.07082" lon="5.31037">
        <ele>261</ele>
        <time>2017-07-02T10:27:09Z</time>
      </trkpt>
      <trkpt lat="50.07082" lon="5.31017">
        <ele>262</ele>
        <time>2017-07-02T10:27:19Z</time>
      </trkpt>
      <trkpt lat="50.07083" lon="5.31003">
        <ele>262</ele>
        <time>2017-07-02T10:27:29Z</time>
      </trkpt>
      <trkpt lat="50.07085" lon="5.30983">
        <ele>264</ele>
        <time>2017-07-02T10:27:40Z</time>
      </trkpt>
      <trkpt lat="50.07087" lon="5.30962">
        <ele>265</ele>
        <time>2017-07-02T10:27:51Z</time>
      </trkpt>
      <trkpt lat="50.0709" lon="5.30944">
        <ele>266</ele>
        <time>2017-07-02T10:28:01Z</time>
      </trkpt>
      <trkpt lat="50.07093" lon="5.30923">
        <ele>268</ele>
        <time>2017-07-02T10:28:12Z</time>
      </trkpt>
      <trkpt lat="50.07097" lon="5.30902">
        <ele>269</ele>
        <time>2017-07-02T10:28:23Z</time>
      </trkpt>
      <trkpt lat="50.07103" lon="5.30882">
        <ele>270</ele>
        <time>2017-07-02T10:28:34Z</time>
      </trkpt>
      <trkpt lat="50.0711" lon="5.30867">
        <ele>271</ele>
        <time>2017-07-02T10:28:44Z</time>
      </trkpt>
      <trkpt lat="50.07119" lon="5.30852">
        <ele>272</ele>
        <time>2017-07-02T10:28:54Z</time>
      </trkpt>
      <trkpt lat="50.07126" lon="5.30831">
        <ele>273</ele>
        <time>2017-07-02T10:29:05Z</time>
      </trkpt>
      <trkpt lat="50.07136" lon="5.30817">
        <ele>274</ele>
        <time>2017-07-02T10:29:15Z</time>
      </trkpt>
      <trkpt lat="50.07145" lon="5.30809">
        <ele>274</ele>
        <time>2017-07-02T10:29:25Z</time>
      </trkpt>
      <trkpt lat="50.07151" lon="5.30808">
        <ele>275</ele>
        <time>2017-07-02T10:29:35Z</time>
      </trkpt>
      <trkpt lat="50.07151" lon="5.30806">
        <ele>274</ele>
        <time>2017-07-02T10:29:45Z</time>
      </trkpt>
      <trkpt lat="50.0716" lon="5.30795">
        <ele>275</ele>
        <time>2017-07-02T10:29:56Z</time>
      </trkpt>
      <trkpt lat="50.07172" lon="5.3078">
        <ele>274</ele>
        <time>2017-07-02T10:30:07Z</time>
      </trkpt>
      <trkpt lat="50.07184" lon="5.30762">
        <ele>273</ele>
        <time>2017-07-02T10:30:17Z</time>
      </trkpt>
      <trkpt lat="50.07197" lon="5.3074">
        <ele>271</ele>
        <time>2017-07-02T10:30:28Z</time>
      </trkpt>
      <trkpt lat="50.07215" lon="5.3072">
        <ele>270</ele>
        <time>2017-07-02T10:30:38Z</time>
      </trkpt>
      <trkpt lat="50.07236" lon="5.3069">
        <ele>268</ele>
        <time>2017-07-02T10:30:49Z</time>
      </trkpt>
      <trkpt lat="50.07252" lon="5.30668">
        <ele>266</ele>
        <time>2017-07-02T10:30:59Z</time>
      </trkpt>
      <trkpt lat="50.07273" lon="5.30644">
        <ele>264</ele>
        <time>2017-07-02T10:31:10Z</time>
      </trkpt>
      <trkpt lat="50.07299" lon="5.30623">
        <ele>263</ele>
        <time>2017-07-02T10:31:21Z</time>
      </trkpt>
      <trkpt lat="50.07309" lon="5.30616">
        <ele>262</ele>
        <time>2017-07-02T10:31:32Z</time>
      </trkpt>
      <trkpt lat="50.07316" lon="5.3061">
        <ele>262</ele>
        <time>2017-07-02T10:31:43Z</time>
      </trkpt>
      <trkpt lat="50.07332" lon="5.30602">
        <ele>264</ele>
        <time>2017-07-02T10:31:53Z</time>
      </trkpt>
      <trkpt lat="50.07353" lon="5.30588">
        <ele>262</ele>
        <time>2017-07-02T10:32:03Z</time>
      </trkpt>
      <trkpt lat="50.07378" lon="5.30582">
        <ele>263</ele>
        <time>2017-07-02T10:32:14Z</time>
      </trkpt>
      <trkpt lat="50.07397" lon="5.30582">
        <ele>262</ele>
        <time>2017-07-02T10:32:25Z</time>
      </trkpt>
      <trkpt lat="50.07407" lon="5.30558">
        <ele>261</ele>
        <time>2017-07-02T10:32:35Z</time>
      </trkpt>
      <trkpt lat="50.07403" lon="5.3052">
        <ele>259</ele>
        <time>2017-07-02T10:32:45Z</time>
      </trkpt>
      <trkpt lat="50.07408" lon="5.30512">
        <ele>259</ele>
        <time>2017-07-02T10:32:56Z</time>
      </trkpt>
      <trkpt lat="50.07408" lon="5.30512">
        <ele>259</ele>
        <time>2017-07-02T10:32:57Z</time>
      </trkpt>
    </trkseg>
  </trk>
</gpx>